createdAt,value
2023-02-15T00:02:36.451Z,3.28
2023-02-15T00:07:43.890Z,3.29
2023-02-15T00:12:51.081Z,3.25
2023-02-15T00:17:56.708Z,3.19
2023-02-15T00:23:04.463Z,3.15
2023-02-15T00:28:12.132Z,3.18
2023-02-15T00:33:19.808Z,3.20
2023-02-15T00:38:28.491Z,3.17
2023-02-15T00:43:37.621Z,3.14
2023-02-15T00:48:45.393Z,3.17
2023-02-15T00:53:53.357Z,3.19
2023-02-15T00:59:01.891Z,3.18
2023-02-15T01:04:10.500Z,3.17
2023-02-15T01:09:20.060Z,3.18
2023-02-15T01:14:29.121Z,3.17
2023-02-15T01:19:36.931Z,3.14
2023-02-15T01:24:45.784Z,3.11
2023-02-15T01:29:53.997Z,3.09
2023-02-15T01:35:03.629Z,3.09
2023-02-15T01:40:18.764Z,3.11
2023-02-15T01:45:29.151Z,3.12
2023-02-15T01:50:40.923Z,3.08
2023-02-15T01:55:52.990Z,3.01
2023-02-15T02:01:04.855Z,2.98
2023-02-15T02:06:12.402Z,2.95
2023-02-15T02:11:19.769Z,2.92
2023-02-15T02:16:32.392Z,2.93
2023-02-15T02:29:20.615Z,2.99
2023-02-15T02:34:32.803Z,2.88
2023-02-15T02:39:48.773Z,2.84
2023-02-15T02:45:02.796Z,2.83
2023-02-15T02:50:15.275Z,2.80
2023-02-15T02:55:29.872Z,2.76
2023-02-15T03:00:42.739Z,2.78
2023-02-15T03:05:53.354Z,2.81
2023-02-15T03:11:03.951Z,2.86
2023-02-15T03:16:29.210Z,2.90
2023-02-15T03:21:40.553Z,2.92
2023-02-15T03:26:52.464Z,2.90
2023-02-15T03:32:04.174Z,2.86
2023-02-15T03:37:18.222Z,2.83
2023-02-15T03:42:32.257Z,2.82
2023-02-15T03:47:43.796Z,2.85
2023-02-15T03:52:51.682Z,2.84
2023-02-15T03:58:16.881Z,2.81
2023-02-15T04:03:34.935Z,2.76
2023-02-15T04:09:00.915Z,2.76
2023-02-15T04:14:36.937Z,2.76
2023-02-15T04:20:02.178Z,2.73
2023-02-15T04:25:13.957Z,2.70
2023-02-15T04:30:24.062Z,2.70
2023-02-15T04:35:32.990Z,2.71
2023-02-15T04:40:40.453Z,2.73
2023-02-15T04:45:52.824Z,2.73
2023-02-15T04:51:00.684Z,2.73
2023-02-15T04:56:09.821Z,2.72
2023-02-15T05:01:17.327Z,2.72
2023-02-15T05:06:25.062Z,2.70
2023-02-15T05:11:32.721Z,2.68
2023-02-15T05:16:40.159Z,2.65
2023-02-15T05:21:47.663Z,2.66
2023-02-15T05:27:12.780Z,2.67
2023-02-15T05:32:20.626Z,2.67
2023-02-15T05:37:28.280Z,2.66
2023-02-15T05:42:35.857Z,2.65
2023-02-15T05:47:43.594Z,2.63
2023-02-15T05:52:52.521Z,2.62
2023-02-15T05:58:02.557Z,2.57
2023-02-15T06:03:10.251Z,2.54
2023-02-15T06:08:20.398Z,2.55
2023-02-15T06:13:28.468Z,2.58
2023-02-15T06:18:36.176Z,2.61
2023-02-15T06:23:44.397Z,2.59
2023-02-15T06:28:51.949Z,2.56
2023-02-15T06:34:02.399Z,2.56
2023-02-15T06:39:09.981Z,2.54
2023-02-15T06:44:17.378Z,2.51
2023-02-15T06:49:24.842Z,2.47
2023-02-15T06:54:32.358Z,2.50
2023-02-15T06:59:39.454Z,2.54
2023-02-15T07:04:46.823Z,2.54
2023-02-15T07:09:53.964Z,2.56
2023-02-15T07:15:00.359Z,2.56
2023-02-15T07:20:10.069Z,2.55
2023-02-15T07:28:19.471Z,2.56
2023-02-15T07:33:28.891Z,2.54
2023-02-15T07:38:39.880Z,2.58
2023-02-15T07:43:48.619Z,2.62
2023-02-15T07:48:56.496Z,2.66
2023-02-15T07:54:04.219Z,2.70
2023-02-15T07:59:11.701Z,2.69
2023-02-15T08:04:19.321Z,2.66
2023-02-15T08:09:26.825Z,2.69
2023-02-15T08:14:34.057Z,2.75
2023-02-15T08:19:39.633Z,2.79
2023-02-15T08:28:36.141Z,2.87
2023-02-15T08:33:45.293Z,2.86
2023-02-15T08:38:53.145Z,2.88
2023-02-15T08:44:04.850Z,2.91
2023-02-15T08:49:14.160Z,2.97
2023-02-15T08:54:23.686Z,3.02
2023-02-15T08:59:32.058Z,3.06
2023-02-15T09:04:39.864Z,3.09
2023-02-15T09:09:48.290Z,3.15
2023-02-15T09:14:55.602Z,3.23
2023-02-15T09:20:03.208Z,3.30
2023-02-15T09:25:11.272Z,3.27
2023-02-15T09:30:19.586Z,3.30
2023-02-15T09:35:27.526Z,3.40
2023-02-15T09:40:42.165Z,3.50
2023-02-15T09:46:16.354Z,3.56
2023-02-15T09:51:37.018Z,3.60
2023-02-15T09:56:50.743Z,3.66
2023-02-15T10:02:17.742Z,3.75
2023-02-15T10:07:40.070Z,3.88
2023-02-15T10:13:15.669Z,4.06
2023-02-15T10:18:41.338Z,4.18
2023-02-15T10:24:10.624Z,4.31
2023-02-15T10:29:30.049Z,4.41
2023-02-15T10:34:41.977Z,4.46
2023-02-15T10:40:01.466Z,4.51
2023-02-15T10:45:23.414Z,4.63
2023-02-15T10:50:45.665Z,4.74
2023-02-15T10:56:05.372Z,4.82
2023-02-15T11:01:22.632Z,4.92
2023-02-15T11:06:30.734Z,5.02
2023-02-15T11:11:43.152Z,5.09
2023-02-15T11:16:55.721Z,5.18
2023-02-15T11:28:21.649Z,5.37
2023-02-15T11:33:33.077Z,5.41
2023-02-15T11:38:44.663Z,5.50
2023-02-15T11:43:58.158Z,5.55
2023-02-15T11:49:07.297Z,5.62
2023-02-15T11:54:15.592Z,5.70
2023-02-15T11:59:32.005Z,5.82
2023-02-15T12:04:45.521Z,5.92
2023-02-15T12:10:01.871Z,6.00
2023-02-15T12:15:11.406Z,6.09
2023-02-15T12:20:31.561Z,6.17
2023-02-15T12:25:43.609Z,6.22
2023-02-15T12:30:51.420Z,6.26
2023-02-15T12:36:03.162Z,6.32
2023-02-15T12:41:27.772Z,6.39
2023-02-15T12:46:38.614Z,6.45
2023-02-15T12:51:53.915Z,6.56
2023-02-15T12:57:02.008Z,6.63
2023-02-15T13:02:17.821Z,6.69
2023-02-15T13:07:26.843Z,6.74
2023-02-15T13:12:35.921Z,6.78
2023-02-15T13:17:45.268Z,6.82
2023-02-15T13:22:55.172Z,6.86
2023-02-15T13:28:05.707Z,6.88
2023-02-15T13:33:20.862Z,6.89
2023-02-15T13:38:49.365Z,6.93
2023-02-15T13:44:06.566Z,7.00
2023-02-15T13:49:29.546Z,7.07
2023-02-15T13:54:56.257Z,7.13
2023-02-15T14:00:16.485Z,7.18
2023-02-15T14:05:37.192Z,7.19
2023-02-15T14:10:52.424Z,7.18
2023-02-15T14:16:05.844Z,7.20
2023-02-15T14:21:17.858Z,7.21
2023-02-15T14:26:39.422Z,7.20
2023-02-15T14:31:52.969Z,7.14
2023-02-15T14:37:02.219Z,7.12
2023-02-15T14:42:18.153Z,7.07
2023-02-15T14:47:32.148Z,7.05
2023-02-15T14:53:16.700Z,7.05
2023-02-15T14:58:24.827Z,6.99
2023-02-15T15:03:33.026Z,6.96
2023-02-15T15:08:43.990Z,6.94
2023-02-15T15:13:58.844Z,6.91
2023-02-15T15:19:11.576Z,6.84
2023-02-15T15:24:52.263Z,6.74
2023-02-15T15:30:00.330Z,6.64
2023-02-15T15:35:24.456Z,6.54
2023-02-15T15:41:11.476Z,6.42
2023-02-15T15:46:34.893Z,6.30
2023-02-15T15:51:45.773Z,6.24
2023-02-15T15:56:58.341Z,6.19
2023-02-15T16:02:10.135Z,6.10
2023-02-15T16:07:29.193Z,6.02
2023-02-15T16:12:38.895Z,5.95
2023-02-15T16:17:49.920Z,5.85
2023-02-15T16:23:08.556Z,5.77
2023-02-15T16:28:19.705Z,5.68
2023-02-15T16:33:37.048Z,5.60
2023-02-15T16:39:08.169Z,5.53
2023-02-15T16:44:21.617Z,5.46
2023-02-15T16:49:32.512Z,5.39
2023-02-15T16:54:44.194Z,5.33
2023-02-15T16:59:54.401Z,5.26
2023-02-15T17:05:22.442Z,5.19
2023-02-15T17:10:37.617Z,5.10
2023-02-15T17:15:46.500Z,5.00
2023-02-15T17:20:56.907Z,4.92
2023-02-15T17:28:30.716Z,4.82
2023-02-15T17:33:42.226Z,4.74
2023-02-15T17:39:07.507Z,4.66
2023-02-15T17:44:16.829Z,4.59
2023-02-15T17:49:29.897Z,4.53
2023-02-15T17:54:54.944Z,4.46
2023-02-15T18:00:19.951Z,4.37
2023-02-15T18:05:45.310Z,4.25
2023-02-15T18:11:10.581Z,4.13
2023-02-15T18:16:28.170Z,4.01
2023-02-15T18:21:37.242Z,3.85
2023-02-15T18:26:45.134Z,3.57
2023-02-15T18:31:56.653Z,3.29
2023-02-15T18:37:06.935Z,3.05
2023-02-15T18:42:23.006Z,2.89
2023-02-15T18:47:30.714Z,2.70
2023-02-15T18:52:40.851Z,2.46
2023-02-15T18:57:49.668Z,2.23
2023-02-15T19:02:57.614Z,2.09
2023-02-15T19:08:06.274Z,2.04
2023-02-15T19:13:15.169Z,1.87
2023-02-15T19:18:22.628Z,1.59
2023-02-15T19:23:31.675Z,1.39
2023-02-15T19:28:39.278Z,1.17
2023-02-15T19:33:46.845Z,1.10
2023-02-15T19:38:56.440Z,1.15
2023-02-15T19:44:04.105Z,1.22
2023-02-15T19:49:13.934Z,1.24
2023-02-15T19:54:33.018Z,1.14
2023-02-15T19:59:41.704Z,1.11
2023-02-15T20:04:49.800Z,1.05
2023-02-15T20:09:57.341Z,0.99
2023-02-15T20:15:17.921Z,0.83
2023-02-15T20:20:30.478Z,0.71
2023-02-15T20:25:37.940Z,0.56
2023-02-15T20:30:46.075Z,0.46
2023-02-15T20:35:54.183Z,0.43
2023-02-15T20:41:20.041Z,0.27
2023-02-15T20:46:28.286Z,0.06
2023-02-15T20:51:36.802Z,-0.09
2023-02-15T20:56:45.206Z,-0.21
2023-02-15T21:01:55.828Z,-0.17
2023-02-15T21:07:04.032Z,-0.11
2023-02-15T21:12:16.846Z,-0.15
2023-02-15T21:17:24.216Z,-0.32
2023-02-15T21:22:31.892Z,-0.49
2023-02-15T21:27:39.489Z,-0.56
2023-02-15T21:32:47.403Z,-0.54
2023-02-15T21:37:55.924Z,-0.56
2023-02-15T21:43:21.652Z,-0.67
2023-02-15T21:48:29.545Z,-0.63
2023-02-15T21:53:40.899Z,-0.59
2023-02-15T21:58:49.706Z,-0.57
2023-02-15T22:03:59.904Z,-0.54
2023-02-15T22:09:18.040Z,-0.48
2023-02-15T22:14:39.519Z,-0.41
2023-02-15T22:19:48.618Z,-0.45
2023-02-15T22:24:56.279Z,-0.51
2023-02-15T22:30:04.602Z,-0.57
2023-02-15T22:35:17.793Z,-0.67
2023-02-15T22:40:32.033Z,-0.76
2023-02-15T22:45:39.812Z,-0.91
2023-02-15T22:50:47.693Z,-1.07
2023-02-15T22:55:56.785Z,-1.09
2023-02-15T23:01:05.716Z,-1.11
2023-02-15T23:06:14.820Z,-1.17
2023-02-15T23:11:22.739Z,-1.19
2023-02-15T23:16:30.362Z,-1.26
2023-02-15T23:21:38.477Z,-1.27
2023-02-15T23:26:46.288Z,-1.34
2023-02-15T23:31:55.148Z,-1.38
2023-02-15T23:37:02.719Z,-1.40
2023-02-15T23:42:13.978Z,-1.39
2023-02-15T23:47:39.770Z,-1.34
2023-02-15T23:52:47.038Z,-1.26
2023-02-15T23:57:52.560Z,-1.29
